Time;durP1;ratioP1;P1;durP2;ratioP2;P2;SDS_P1;SDS_P2;PMS_P1;PMS_P2;Temp;Humidity;BMP_temperature;BMP_pressure;BME280_temperature;BME280_humidity;BME280_pressure;Samples;Min_cycle;Max_cycle;Signal;HPM_P1;HPM_P2
2023/12/05 00:00:07;;;;;;;13.85;7.50;;;;;;;;;;4976715;28;20042;-72
2023/12/05 00:02:33;;;;;;;11.77;5.82;;;;;;;;;;4984710;28;20049;-72
2023/12/05 00:04:58;;;;;;;14.90;7.03;;;;;;;;;;4977398;28;20448;-73
2023/12/05 00:07:25;;;;;;;13.38;6.78;;;;;;;;;;4968054;28;20062;-72
2023/12/05 00:09:50;;;;;;;10.98;6.00;;;;;;;;;;4975432;28;20552;-72
2023/12/05 00:12:16;;;;;;;12.88;6.28;;;;;;;;;;4982975;28;20038;-72
2023/12/05 00:14:41;;;;;;;12.05;6.20;;;;;;;;;;4993983;28;20038;-72
2023/12/05 00:17:06;;;;;;;12.90;6.18;;;;;;;;;;4999477;28;20079;-74
2023/12/05 00:19:32;;;;;;;12.15;5.85;;;;;;;;;;4995354;28;20037;-74
2023/12/05 00:21:58;;;;;;;13.63;6.80;;;;;;;;;;4985914;28;20048;-73
2023/12/05 00:24:23;;;;;;;12.63;6.07;;;;;;;;;;5002033;28;20415;-70
2023/12/05 00:26:49;;;;;;;12.00;5.82;;;;;;;;;;4995581;28;20045;-73
2023/12/05 00:29:15;;;;;;;9.48;4.88;;;;;;;;;;4983131;28;20033;-72
2023/12/05 00:31:40;;;;;;;11.45;6.10;;;;;;;;;;4995076;28;20037;-73
2023/12/05 00:34:06;;;;;;;13.93;6.97;;;;;;;;;;4972638;28;20050;-74
2023/12/05 00:36:31;;;;;;;10.25;4.82;;;;;;;;;;4971153;28;20050;-74
2023/12/05 00:38:57;;;;;;;13.75;6.38;;;;;;;;;;4985628;28;20039;-73
2023/12/05 00:41:24;;;;;;;11.18;6.53;;;;;;;;;;4986141;28;20045;-73
2023/12/05 00:43:51;;;;;;;13.95;6.75;;;;;;;;;;4979058;28;20041;-74
2023/12/05 00:46:16;;;;;;;14.85;6.05;;;;;;;;;;4980771;28;20138;-74
2023/12/05 00:48:41;;;;;;;13.68;6.60;;;;;;;;;;4987951;28;20520;-73
2023/12/05 00:51:07;;;;;;;12.52;6.10;;;;;;;;;;4989289;28;20269;-74
2023/12/05 00:53:32;;;;;;;11.70;5.88;;;;;;;;;;5004026;28;20040;-73
2023/12/05 00:55:58;;;;;;;15.18;7.70;;;;;;;;;;4990976;28;20044;-74
2023/12/05 00:58:23;;;;;;;13.82;7.22;;;;;;;;;;4986857;28;20039;-75
2023/12/05 01:00:48;;;;;;;11.95;6.22;;;;;;;;;;4984928;28;20057;-73
2023/12/05 01:03:14;;;;;;;15.15;7.10;;;;;;;;;;4970936;28;20489;-76
2023/12/05 01:05:40;;;;;;;16.65;8.40;;;;;;;;;;4976251;28;20046;-75
2023/12/05 01:08:05;;;;;;;14.43;7.35;;;;;;;;;;4979702;28;20256;-73
2023/12/05 01:10:30;;;;;;;14.82;6.40;;;;;;;;;;4985490;28;20034;-74
2023/12/05 01:12:56;;;;;;;19.02;7.60;;;;;;;;;;4984119;28;20038;-74
2023/12/05 01:15:21;;;;;;;13.43;6.60;;;;;;;;;;4989778;28;20042;-74
2023/12/05 01:17:47;;;;;;;12.90;6.68;;;;;;;;;;4988069;28;20420;-73
2023/12/05 01:20:12;;;;;;;16.23;7.00;;;;;;;;;;4986094;28;20045;-73
2023/12/05 01:22:38;;;;;;;12.13;6.63;;;;;;;;;;4989789;28;20045;-73
2023/12/05 01:25:05;;;;;;;14.00;6.28;;;;;;;;;;4983154;28;20439;-75
2023/12/05 01:27:31;;;;;;;15.55;7.53;;;;;;;;;;4999420;28;20455;-74
2023/12/05 01:29:56;;;;;;;16.17;6.65;;;;;;;;;;4993034;28;20058;-73
2023/12/05 01:32:21;;;;;;;11.32;6.60;;;;;;;;;;4979803;28;20147;-74
2023/12/05 01:34:47;;;;;;;16.42;7.22;;;;;;;;;;4973399;28;20043;-74
2023/12/05 01:37:13;;;;;;;13.88;5.63;;;;;;;;;;4967429;28;20410;-77
2023/12/05 01:39:38;;;;;;;12.50;6.53;;;;;;;;;;4972222;28;20041;-75
2023/12/05 01:42:04;;;;;;;12.00;6.10;;;;;;;;;;4998634;28;20046;-73
2023/12/05 01:44:29;;;;;;;15.27;6.88;;;;;;;;;;4994700;28;20047;-74
2023/12/05 01:46:55;;;;;;;14.10;6.75;;;;;;;;;;4988164;28;20452;-74
2023/12/05 01:49:21;;;;;;;10.50;6.03;;;;;;;;;;4998430;28;20084;-74
2023/12/05 01:51:47;;;;;;;11.40;5.45;;;;;;;;;;4992915;28;20411;-73
2023/12/05 01:54:12;;;;;;;10.27;5.95;;;;;;;;;;4951137;28;20034;-74
2023/12/05 01:56:38;;;;;;;13.30;6.55;;;;;;;;;;4966809;28;20456;-74
2023/12/05 01:59:04;;;;;;;12.95;6.40;;;;;;;;;;4968253;28;20065;-74
2023/12/05 02:01:29;;;;;;;16.13;7.75;;;;;;;;;;4976915;28;20269;-72
2023/12/05 02:03:57;;;;;;;15.68;7.40;;;;;;;;;;4995631;28;20041;-75
2023/12/05 02:06:22;;;;;;;12.25;6.75;;;;;;;;;;4987570;28;20085;-73
2023/12/05 02:08:50;;;;;;;12.80;6.13;;;;;;;;;;4972768;28;20038;-73
2023/12/05 02:11:16;;;;;;;9.73;4.82;;;;;;;;;;4998320;28;20493;-73
2023/12/05 02:13:43;;;;;;;14.88;6.10;;;;;;;;;;4986787;28;20062;-73
2023/12/05 02:16:53;;;;;;;15.68;6.95;;;;;;;;;;4973871;28;20065;-74
2023/12/05 02:19:30;;;;;;;13.35;6.65;;;;;;;;;;4937969;28;20561;-74
2023/12/05 02:22:01;;;;;;;14.73;6.18;;;;;;;;;;4935060;28;20063;-73
2023/12/05 02:24:43;;;;;;;11.18;5.70;;;;;;;;;;4952077;28;20041;-74
2023/12/05 02:27:39;;;;;;;11.57;5.72;;;;;;;;;;5001198;28;20599;-74
2023/12/05 02:30:05;;;;;;;14.05;7.53;;;;;;;;;;4966871;28;20114;-73
2023/12/05 02:32:31;;;;;;;10.02;5.38;;;;;;;;;;4989022;28;20444;-73
2023/12/05 02:34:57;;;;;;;13.32;6.78;;;;;;;;;;4981101;28;20037;-73
2023/12/05 02:37:44;;;;;;;12.88;6.38;;;;;;;;;;4998649;28;20123;-73
2023/12/05 02:40:28;;;;;;;11.40;5.82;;;;;;;;;;4999313;28;20272;-73
2023/12/05 02:42:56;;;;;;;16.13;7.30;;;;;;;;;;4970260;28;20059;-75
2023/12/05 02:45:26;;;;;;;14.15;6.40;;;;;;;;;;4983871;28;20068;-74
2023/12/05 02:47:52;;;;;;;10.88;5.72;;;;;;;;;;5001043;28;20096;-74
2023/12/05 02:50:17;;;;;;;14.70;7.50;;;;;;;;;;4992310;28;20456;-74
2023/12/05 02:52:43;;;;;;;15.77;7.28;;;;;;;;;;4988375;28;20038;-74
2023/12/05 02:55:08;;;;;;;13.15;6.38;;;;;;;;;;4985263;28;20088;-74
2023/12/05 02:57:34;;;;;;;13.00;6.93;;;;;;;;;;4993084;28;20579;-73
2023/12/05 02:59:59;;;;;;;12.52;6.35;;;;;;;;;;4982588;28;20064;-74
2023/12/05 03:02:24;;;;;;;11.60;6.38;;;;;;;;;;5000761;28;20048;-73
2023/12/05 03:04:50;;;;;;;13.68;6.40;;;;;;;;;;4990853;28;20448;-73
2023/12/05 03:07:15;;;;;;;9.88;4.47;;;;;;;;;;4995882;28;20045;-74
2023/12/05 03:09:41;;;;;;;11.95;6.40;;;;;;;;;;4977923;28;20037;-73
2023/12/05 03:12:07;;;;;;;16.73;8.40;;;;;;;;;;4999534;28;20046;-73
2023/12/05 03:14:32;;;;;;;13.07;6.78;;;;;;;;;;4952419;28;20051;-73
2023/12/05 03:16:58;;;;;;;13.15;7.88;;;;;;;;;;4999889;28;20045;-74
2023/12/05 03:19:24;;;;;;;16.20;6.82;;;;;;;;;;4977987;28;20540;-73
2023/12/05 03:21:49;;;;;;;10.68;5.70;;;;;;;;;;4993943;28;20030;-73
2023/12/05 03:24:15;;;;;;;14.07;6.20;;;;;;;;;;4982697;28;20041;-73
2023/12/05 03:26:40;;;;;;;13.27;6.70;;;;;;;;;;4986270;28;21577;-73
2023/12/05 03:29:05;;;;;;;16.83;7.43;;;;;;;;;;4997017;28;20614;-73
2023/12/05 03:31:35;;;;;;;14.20;6.80;;;;;;;;;;5002741;28;20036;-73
2023/12/05 03:34:01;;;;;;;15.27;6.97;;;;;;;;;;5003374;28;20397;-73
2023/12/05 03:36:27;;;;;;;16.02;7.15;;;;;;;;;;5002207;28;20044;-74
2023/12/05 03:38:52;;;;;;;13.82;6.78;;;;;;;;;;4985142;28;20044;-74
2023/12/05 03:41:17;;;;;;;12.73;6.70;;;;;;;;;;4987083;28;20049;-74
2023/12/05 03:43:43;;;;;;;15.18;6.15;;;;;;;;;;5002052;28;20443;-74
2023/12/05 03:46:08;;;;;;;17.88;7.65;;;;;;;;;;5005171;28;20466;-73
2023/12/05 03:48:35;;;;;;;16.65;7.22;;;;;;;;;;5002202;28;20036;-73
2023/12/05 03:51:00;;;;;;;16.30;6.72;;;;;;;;;;5005713;28;20063;-73
2023/12/05 03:53:26;;;;;;;12.45;5.70;;;;;;;;;;4971712;28;20504;-73
2023/12/05 03:55:51;;;;;;;14.43;6.78;;;;;;;;;;4982710;28;20436;-74
2023/12/05 03:58:17;;;;;;;17.58;7.20;;;;;;;;;;4996782;28;20069;-74
2023/12/05 04:00:42;;;;;;;11.88;6.80;;;;;;;;;;4996681;28;20038;-74
2023/12/05 04:03:07;;;;;;;17.42;7.47;;;;;;;;;;4996817;28;20435;-74
2023/12/05 04:05:33;;;;;;;15.63;6.85;;;;;;;;;;4988590;28;20064;-74
2023/12/05 04:07:58;;;;;;;18.27;7.43;;;;;;;;;;4989375;28;20048;-74
2023/12/05 04:10:24;;;;;;;16.17;7.63;;;;;;;;;;4984834;28;20037;-74
2023/12/05 04:12:49;;;;;;;15.05;7.05;;;;;;;;;;5008484;28;20124;-73
2023/12/05 04:15:14;;;;;;;10.45;5.85;;;;;;;;;;5001504;28;20037;-73
2023/12/05 04:17:40;;;;;;;15.13;7.10;;;;;;;;;;5009600;28;20045;-73
2023/12/05 04:20:07;;;;;;;18.90;7.90;;;;;;;;;;4983575;28;20053;-74
2023/12/05 04:22:32;;;;;;;11.80;6.68;;;;;;;;;;4998543;28;20481;-73
2023/12/05 04:24:57;;;;;;;13.88;6.82;;;;;;;;;;4992165;28;20037;-73
2023/12/05 04:27:23;;;;;;;17.75;7.32;;;;;;;;;;5010369;28;20508;-73
2023/12/05 04:29:49;;;;;;;14.85;7.07;;;;;;;;;;4996318;28;20033;-73
2023/12/05 04:32:14;;;;;;;16.00;7.90;;;;;;;;;;4997871;28;20075;-73
2023/12/05 04:34:44;;;;;;;13.65;6.32;;;;;;;;;;4997023;28;20420;-73
2023/12/05 04:37:11;;;;;;;18.17;7.03;;;;;;;;;;4982932;28;20042;-74
2023/12/05 04:39:36;;;;;;;12.90;6.15;;;;;;;;;;4980648;28;20661;-73
2023/12/05 04:42:02;;;;;;;22.00;9.05;;;;;;;;;;4993109;28;20046;-73
2023/12/05 04:44:27;;;;;;;16.08;7.40;;;;;;;;;;4992254;28;20037;-74
2023/12/05 04:46:53;;;;;;;13.65;7.03;;;;;;;;;;4977462;28;20044;-73
2023/12/05 04:49:19;;;;;;;16.77;7.50;;;;;;;;;;4973870;28;20037;-72
2023/12/05 04:51:44;;;;;;;16.80;7.40;;;;;;;;;;4971202;28;20038;-73
2023/12/05 04:54:10;;;;;;;11.25;5.15;;;;;;;;;;4989376;28;20092;-74
2023/12/05 04:56:35;;;;;;;16.42;7.30;;;;;;;;;;4992148;28;20052;-73
2023/12/05 04:59:01;;;;;;;15.45;7.60;;;;;;;;;;4990084;28;20385;-73
2023/12/05 05:01:26;;;;;;;16.27;8.55;;;;;;;;;;5007255;28;20069;-73
2023/12/05 05:03:51;;;;;;;14.20;7.50;;;;;;;;;;4996305;28;20041;-73
2023/12/05 05:06:18;;;;;;;14.98;6.90;;;;;;;;;;4990988;28;20042;-73
2023/12/05 05:08:43;;;;;;;15.65;7.60;;;;;;;;;;4977987;28;20037;-73
2023/12/05 05:11:09;;;;;;;19.15;7.45;;;;;;;;;;4998707;28;20038;-73
2023/12/05 05:13:34;;;;;;;16.38;7.85;;;;;;;;;;5000322;28;20045;-73
2023/12/05 05:15:59;;;;;;;15.30;7.40;;;;;;;;;;5009037;28;20132;-73
2023/12/05 05:18:25;;;;;;;11.90;6.93;;;;;;;;;;4990616;28;20107;-74
2023/12/05 05:20:50;;;;;;;18.92;7.93;;;;;;;;;;4985961;28;20033;-74
2023/12/05 05:23:16;;;;;;;14.88;7.53;;;;;;;;;;4999192;28;20124;-74
2023/12/05 05:25:41;;;;;;;16.35;7.60;;;;;;;;;;4990424;28;20515;-74
2023/12/05 05:28:09;;;;;;;17.92;7.53;;;;;;;;;;4999664;28;20570;-74
2023/12/05 05:30:34;;;;;;;15.57;7.88;;;;;;;;;;4979851;28;20044;-74
2023/12/05 05:33:00;;;;;;;12.75;6.72;;;;;;;;;;4972821;28;20029;-73
2023/12/05 05:35:25;;;;;;;17.52;7.95;;;;;;;;;;4951086;28;20043;-73
2023/12/05 05:37:51;;;;;;;17.45;7.80;;;;;;;;;;4975465;28;20410;-73
2023/12/05 05:40:16;;;;;;;17.20;8.18;;;;;;;;;;4985131;28;20065;-73
2023/12/05 05:42:41;;;;;;;12.90;6.85;;;;;;;;;;4989439;28;20038;-73
2023/12/05 05:45:08;;;;;;;14.23;7.38;;;;;;;;;;4962518;28;20034;-73
2023/12/05 05:47:33;;;;;;;16.10;7.65;;;;;;;;;;4947702;28;20030;-74
2023/12/05 05:49:59;;;;;;;17.90;7.88;;;;;;;;;;4967751;28;20443;-74
2023/12/05 05:52:24;;;;;;;15.77;7.15;;;;;;;;;;4978570;28;20042;-74
2023/12/05 05:54:50;;;;;;;12.45;6.15;;;;;;;;;;4994211;28;20057;-74
2023/12/05 05:57:16;;;;;;;20.42;8.80;;;;;;;;;;4982008;28;20057;-74
2023/12/05 05:59:45;;;;;;;16.58;8.70;;;;;;;;;;4975555;28;20050;-74
2023/12/05 06:02:12;;;;;;;16.35;8.02;;;;;;;;;;4981118;28;20040;-74
2023/12/05 06:04:41;;;;;;;19.80;10.43;;;;;;;;;;4970593;28;20073;-74
2023/12/05 06:07:07;;;;;;;20.42;8.80;;;;;;;;;;4991509;28;20038;-74
2023/12/05 06:09:32;;;;;;;18.98;8.73;;;;;;;;;;4976272;28;20125;-76
2023/12/05 06:11:58;;;;;;;18.63;8.27;;;;;;;;;;4980972;28;20208;-73
2023/12/05 06:14:23;;;;;;;17.63;8.20;;;;;;;;;;4978123;28;20041;-74
2023/12/05 06:16:49;;;;;;;21.50;11.10;;;;;;;;;;4985940;28;20050;-75
2023/12/05 06:19:14;;;;;;;22.95;11.38;;;;;;;;;;4982833;28;20038;-75
2023/12/05 06:21:40;;;;;;;21.15;10.60;;;;;;;;;;5000515;28;20056;-74
2023/12/05 06:24:05;;;;;;;21.80;9.85;;;;;;;;;;5001169;28;20046;-74
2023/12/05 06:26:31;;;;;;;24.65;10.95;;;;;;;;;;4994046;28;20553;-75
2023/12/05 06:28:56;;;;;;;22.65;9.88;;;;;;;;;;4988040;28;20445;-75
2023/12/05 06:31:22;;;;;;;17.33;8.55;;;;;;;;;;4994104;28;20041;-75
2023/12/05 06:33:48;;;;;;;18.30;8.77;;;;;;;;;;4991900;28;20138;-75
2023/12/05 06:36:16;;;;;;;17.52;8.52;;;;;;;;;;4982356;28;20606;-75
2023/12/05 06:38:41;;;;;;;24.80;9.07;;;;;;;;;;4980879;28;20443;-75
2023/12/05 06:41:07;;;;;;;19.35;9.48;;;;;;;;;;4992405;28;20049;-75
2023/12/05 06:43:33;;;;;;;25.38;11.68;;;;;;;;;;4967229;28;20034;-75
2023/12/05 06:45:58;;;;;;;18.40;8.32;;;;;;;;;;4964759;28;20105;-75
2023/12/05 06:48:23;;;;;;;18.73;9.05;;;;;;;;;;4998051;28;20042;-75
2023/12/05 06:50:49;;;;;;;18.27;9.77;;;;;;;;;;4989145;28;20046;-75
2023/12/05 06:53:14;;;;;;;18.38;8.27;;;;;;;;;;4988115;28;20088;-75
2023/12/05 06:55:40;;;;;;;19.88;8.52;;;;;;;;;;4988320;28;20100;-75
2023/12/05 06:58:05;;;;;;;21.23;8.70;;;;;;;;;;4977918;28;20650;-75
2023/12/05 07:00:31;;;;;;;18.58;8.60;;;;;;;;;;4981527;28;20045;-75
2023/12/05 07:02:56;;;;;;;25.08;9.95;;;;;;;;;;4989382;28;20052;-75
2023/12/05 07:05:21;;;;;;;24.83;11.07;;;;;;;;;;4972595;28;20539;-75
2023/12/05 07:07:47;;;;;;;19.90;10.45;;;;;;;;;;4985582;28;20122;-75
2023/12/05 07:10:12;;;;;;;23.13;12.20;;;;;;;;;;5000721;28;20040;-75
2023/12/05 07:12:38;;;;;;;16.08;8.82;;;;;;;;;;4984433;28;20038;-75
2023/12/05 07:15:04;;;;;;;25.35;11.63;;;;;;;;;;4966444;28;20066;-75
2023/12/05 07:17:29;;;;;;;24.52;12.43;;;;;;;;;;4993089;28;20116;-75
2023/12/05 07:19:54;;;;;;;22.30;11.02;;;;;;;;;;5004827;28;20033;-75
2023/12/05 07:22:20;;;;;;;20.33;11.38;;;;;;;;;;5008341;28;20026;-75
2023/12/05 07:24:45;;;;;;;23.17;11.13;;;;;;;;;;4995704;28;20042;-75
2023/12/05 07:27:10;;;;;;;22.77;10.32;;;;;;;;;;4982695;28;20038;-76
2023/12/05 07:29:36;;;;;;;20.30;10.05;;;;;;;;;;4972228;28;20085;-76
2023/12/05 07:32:01;;;;;;;24.70;10.75;;;;;;;;;;4992850;28;20061;-75
2023/12/05 07:34:27;;;;;;;22.98;10.57;;;;;;;;;;4988612;28;20490;-75
2023/12/05 07:36:52;;;;;;;27.33;11.60;;;;;;;;;;4992413;28;20056;-75
2023/12/05 07:39:17;;;;;;;22.42;10.75;;;;;;;;;;4998398;28;20033;-75
2023/12/05 07:41:43;;;;;;;26.90;11.55;;;;;;;;;;5000791;28;20037;-76
2023/12/05 07:44:10;;;;;;;21.02;9.27;;;;;;;;;;4983264;28;20500;-76
2023/12/05 07:46:35;;;;;;;21.42;10.55;;;;;;;;;;5000897;28;20099;-76
2023/12/05 07:49:03;;;;;;;26.50;12.10;;;;;;;;;;4996430;28;20042;-75
2023/12/05 07:51:29;;;;;;;28.40;12.48;;;;;;;;;;4998764;28;20033;-76
2023/12/05 07:53:54;;;;;;;32.08;14.23;;;;;;;;;;4971030;28;20038;-75
2023/12/05 07:56:20;;;;;;;26.83;12.10;;;;;;;;;;4983142;28;20045;-75
2023/12/05 07:58:45;;;;;;;24.75;11.57;;;;;;;;;;4969999;28;20465;-75
2023/12/05 08:01:11;;;;;;;32.67;14.30;;;;;;;;;;4997373;28;20051;-75
2023/12/05 08:03:36;;;;;;;28.40;13.57;;;;;;;;;;4996650;28;20119;-75
2023/12/05 08:06:02;;;;;;;30.80;13.07;;;;;;;;;;4992161;28;20530;-75
2023/12/05 08:08:30;;;;;;;25.55;12.82;;;;;;;;;;4972524;28;20072;-75
2023/12/05 08:10:57;;;;;;;26.88;12.15;;;;;;;;;;4993165;28;20029;-76
2023/12/05 08:13:22;;;;;;;23.17;11.18;;;;;;;;;;4993236;28;20048;-76
2023/12/05 08:15:47;;;;;;;26.90;11.82;;;;;;;;;;4979226;28;20659;-75
2023/12/05 08:18:13;;;;;;;22.60;11.13;;;;;;;;;;4987862;28;20045;-75
2023/12/05 08:20:38;;;;;;;21.40;10.45;;;;;;;;;;4977570;28;20050;-75
2023/12/05 08:23:03;;;;;;;26.20;11.18;;;;;;;;;;4983167;28;20060;-75
2023/12/05 08:25:29;;;;;;;22.20;10.27;;;;;;;;;;4980181;28;20049;-75
2023/12/05 08:27:55;;;;;;;19.77;10.18;;;;;;;;;;4971299;28;20049;-75
2023/12/05 08:30:20;;;;;;;22.75;10.63;;;;;;;;;;4979108;28;20586;-75
2023/12/05 08:32:46;;;;;;;22.45;10.20;;;;;;;;;;4991190;28;20042;-75
2023/12/05 08:35:11;;;;;;;22.45;11.20;;;;;;;;;;4981786;28;20061;-75
2023/12/05 08:37:37;;;;;;;23.33;11.60;;;;;;;;;;4980829;28;20053;-75
2023/12/05 08:40:03;;;;;;;23.20;11.63;;;;;;;;;;4982777;28;20080;-75
2023/12/05 08:42:28;;;;;;;22.35;11.05;;;;;;;;;;4992424;28;20050;-75
2023/12/05 08:44:54;;;;;;;30.17;11.60;;;;;;;;;;4992873;28;20518;-75
2023/12/05 08:47:19;;;;;;;21.15;9.38;;;;;;;;;;4981443;28;20069;-75
2023/12/05 08:49:45;;;;;;;19.77;9.40;;;;;;;;;;4969136;28;20038;-75
2023/12/05 08:52:10;;;;;;;23.38;10.55;;;;;;;;;;4978513;28;20041;-75
2023/12/05 08:54:36;;;;;;;23.63;9.48;;;;;;;;;;4981232;28;20096;-75
2023/12/05 08:57:01;;;;;;;24.85;10.07;;;;;;;;;;4993761;28;20558;-75
2023/12/05 08:59:27;;;;;;;22.33;11.20;;;;;;;;;;4996178;28;20033;-75
2023/12/05 09:01:52;;;;;;;32.85;13.55;;;;;;;;;;4990548;28;20042;-76
2023/12/05 09:04:18;;;;;;;26.23;12.85;;;;;;;;;;4997577;28;20075;-75
2023/12/05 09:06:43;;;;;;;28.35;12.82;;;;;;;;;;4979440;28;20535;-76
2023/12/05 09:09:09;;;;;;;24.90;11.32;;;;;;;;;;4975462;28;20459;-76
2023/12/05 09:11:36;;;;;;;19.92;10.63;;;;;;;;;;4979092;28;20077;-76
2023/12/05 09:14:01;;;;;;;25.08;11.73;;;;;;;;;;4983341;28;20045;-77
2023/12/05 09:16:27;;;;;;;25.63;12.10;;;;;;;;;;4990199;28;20034;-75
2023/12/05 09:18:52;;;;;;;23.15;11.82;;;;;;;;;;4989036;28;20042;-75
2023/12/05 09:21:18;;;;;;;23.30;11.00;;;;;;;;;;4975522;28;20042;-75
2023/12/05 09:23:43;;;;;;;19.50;8.82;;;;;;;;;;4988109;28;20614;-75
2023/12/05 09:26:09;;;;;;;21.67;10.88;;;;;;;;;;4998125;28;20037;-75
2023/12/05 09:28:34;;;;;;;22.95;10.57;;;;;;;;;;4991899;28;20543;-75
2023/12/05 09:31:00;;;;;;;25.40;11.05;;;;;;;;;;4987016;28;20042;-75
2023/12/05 09:33:25;;;;;;;22.30;10.60;;;;;;;;;;4982731;28;20034;-75
2023/12/05 09:35:50;;;;;;;22.95;9.80;;;;;;;;;;4973586;28;20081;-75
2023/12/05 09:38:16;;;;;;;21.60;10.45;;;;;;;;;;4977022;28;20600;-75
2023/12/05 09:40:41;;;;;;;24.42;11.38;;;;;;;;;;4987357;28;20045;-75
2023/12/05 09:43:08;;;;;;;23.33;9.95;;;;;;;;;;4991965;28;20042;-75
2023/12/05 09:45:42;;;;;;;25.77;11.40;;;;;;;;;;4995865;28;20037;-75
2023/12/05 09:48:11;;;;;;;24.52;11.07;;;;;;;;;;4982080;28;20124;-75
2023/12/05 09:50:37;;;;;;;19.73;8.90;;;;;;;;;;4971955;28;20584;-75
2023/12/05 09:53:05;;;;;;;25.77;12.23;;;;;;;;;;4982559;28;20050;-75
2023/12/05 09:55:31;;;;;;;24.35;11.07;;;;;;;;;;4988052;28;20070;-75
2023/12/05 09:57:57;;;;;;;27.20;11.98;;;;;;;;;;4984309;28;20040;-75
2023/12/05 10:00:24;;;;;;;24.90;10.93;;;;;;;;;;4978927;28;20034;-75
2023/12/05 10:02:52;;;;;;;25.98;10.73;;;;;;;;;;4982179;28;20061;-75
2023/12/05 10:05:20;;;;;;;25.77;11.82;;;;;;;;;;4975446;28;20117;-75
2023/12/05 10:07:47;;;;;;;23.23;11.50;;;;;;;;;;4987639;28;20034;-75
2023/12/05 10:10:14;;;;;;;26.70;11.13;;;;;;;;;;4997308;28;20048;-75
2023/12/05 10:12:40;;;;;;;23.27;10.63;;;;;;;;;;4991238;28;20042;-75
2023/12/05 10:15:06;;;;;;;23.23;11.02;;;;;;;;;;4982586;28;20041;-75
2023/12/05 10:17:33;;;;;;;24.77;11.68;;;;;;;;;;4985326;28;20045;-75
2023/12/05 10:19:59;;;;;;;22.20;9.63;;;;;;;;;;4979040;28;20048;-75
2023/12/05 10:22:29;;;;;;;24.17;12.00;;;;;;;;;;4980120;28;20030;-75
2023/12/05 10:24:55;;;;;;;23.93;11.17;;;;;;;;;;4995569;28;20068;-75
2023/12/05 10:27:21;;;;;;;26.25;11.27;;;;;;;;;;4999176;28;20073;-75
2023/12/05 10:29:46;;;;;;;24.88;11.02;;;;;;;;;;4988237;28;20170;-75
2023/12/05 10:32:13;;;;;;;23.45;11.35;;;;;;;;;;4985657;28;20665;-76
2023/12/05 10:34:50;;;;;;;23.50;11.05;;;;;;;;;;4991420;28;20057;-75
2023/12/05 10:37:25;;;;;;;26.02;10.82;;;;;;;;;;4999197;28;20037;-75
2023/12/05 10:39:52;;;;;;;23.02;10.93;;;;;;;;;;4986956;28;21182;-75
2023/12/05 10:42:19;;;;;;;25.05;10.88;;;;;;;;;;4961477;28;20117;-75
2023/12/05 10:44:45;;;;;;;26.45;10.68;;;;;;;;;;4966145;28;20160;-75
2023/12/05 10:47:12;;;;;;;24.83;11.23;;;;;;;;;;4990668;28;20042;-75
2023/12/05 10:49:41;;;;;;;22.20;9.82;;;;;;;;;;4980244;28;20084;-75
2023/12/05 10:52:08;;;;;;;21.98;10.60;;;;;;;;;;4974643;28;20426;-75
2023/12/05 10:54:33;;;;;;;21.00;9.95;;;;;;;;;;4971571;28;20484;-75
2023/12/05 10:56:59;;;;;;;26.58;11.13;;;;;;;;;;4974146;28;20062;-76
2023/12/05 10:59:28;;;;;;;24.00;9.73;;;;;;;;;;4975518;28;20048;-75
2023/12/05 11:01:57;;;;;;;21.55;10.23;;;;;;;;;;4998279;28;20097;-75
2023/12/05 11:04:27;;;;;;;26.65;10.15;;;;;;;;;;4992786;28;20421;-75
2023/12/05 11:06:53;;;;;;;22.73;9.70;;;;;;;;;;4991640;28;20041;-75
2023/12/05 11:09:19;;;;;;;22.23;9.95;;;;;;;;;;4979485;28;20104;-75
2023/12/05 11:11:51;;;;;;;21.75;10.30;;;;;;;;;;4970171;28;20046;-75
2023/12/05 11:14:19;;;;;;;23.17;11.23;;;;;;;;;;4987071;28;20103;-75
2023/12/05 11:16:49;;;;;;;31.15;11.77;;;;;;;;;;4996225;28;20037;-75
2023/12/05 11:19:45;;;;;;;26.70;13.23;;;;;;;;;;4993514;28;20050;-75
2023/12/05 11:22:31;;;;;;;26.35;11.70;;;;;;;;;;4953802;28;20511;-75
2023/12/05 11:25:06;;;;;;;29.45;12.75;;;;;;;;;;4997281;28;20324;-75
2023/12/05 11:27:50;;;;;;;29.27;13.93;;;;;;;;;;4984897;28;20548;-75
2023/12/05 11:30:15;;;;;;;30.77;14.32;;;;;;;;;;4967561;28;20069;-75
2023/12/05 11:33:21;;;;;;;33.38;16.42;;;;;;;;;;5007182;28;20073;-75
2023/12/05 11:35:50;;;;;;;32.28;15.65;;;;;;;;;;4991715;28;20528;-75
2023/12/05 11:38:20;;;;;;;30.95;14.35;;;;;;;;;;4992694;28;20046;-75
2023/12/05 11:41:17;;;;;;;27.67;12.70;;;;;;;;;;4975347;28;20877;-75
2023/12/05 11:43:43;;;;;;;25.83;12.82;;;;;;;;;;4993130;28;20134;-75
2023/12/05 11:46:09;;;;;;;24.20;12.68;;;;;;;;;;4996859;28;20124;-75
2023/12/05 11:48:34;;;;;;;25.60;11.38;;;;;;;;;;4993649;28;20037;-75
2023/12/05 11:51:01;;;;;;;24.65;11.20;;;;;;;;;;4982617;28;20060;-75
2023/12/05 11:53:26;;;;;;;27.63;12.38;;;;;;;;;;4992373;28;20053;-75
2023/12/05 11:55:52;;;;;;;21.42;10.65;;;;;;;;;;4963133;28;20113;-75
2023/12/05 11:58:31;;;;;;;21.15;10.05;;;;;;;;;;4995539;28;20112;-75
2023/12/05 12:01:03;;;;;;;26.20;11.63;;;;;;;;;;4998904;28;20052;-75
2023/12/05 12:03:53;;;;;;;20.83;11.25;;;;;;;;;;4982478;28;20046;-75
2023/12/05 12:06:23;;;;;;;22.40;11.15;;;;;;;;;;4996196;28;20041;-75
2023/12/05 12:08:53;;;;;;;23.00;11.57;;;;;;;;;;4992005;28;20038;-75
2023/12/05 12:11:20;;;;;;;20.95;10.80;;;;;;;;;;4996535;28;20044;-75
2023/12/05 12:13:48;;;;;;;23.67;10.70;;;;;;;;;;4973811;28;20497;-75
2023/12/05 12:16:15;;;;;;;28.67;12.05;;;;;;;;;;4993716;28;20050;-75
2023/12/05 12:18:40;;;;;;;23.25;10.90;;;;;;;;;;4991032;28;20038;-75
2023/12/05 12:21:06;;;;;;;22.38;11.20;;;;;;;;;;4992367;28;20129;-75
2023/12/05 12:23:32;;;;;;;22.35;10.70;;;;;;;;;;4986391;28;20046;-75
2023/12/05 12:26:00;;;;;;;23.40;10.65;;;;;;;;;;4985455;28;20120;-75
2023/12/05 12:28:30;;;;;;;18.55;9.57;;;;;;;;;;4959915;28;20481;-75
2023/12/05 12:30:56;;;;;;;19.98;10.07;;;;;;;;;;4987762;28;20116;-75
2023/12/05 12:33:22;;;;;;;21.33;10.00;;;;;;;;;;4987296;28;20631;-75
2023/12/05 12:35:50;;;;;;;17.75;9.73;;;;;;;;;;4995335;28;20117;-75
2023/12/05 12:38:15;;;;;;;22.00;10.35;;;;;;;;;;4997101;28;20041;-75
2023/12/05 12:40:41;;;;;;;22.63;9.50;;;;;;;;;;5000163;28;20145;-75
2023/12/05 12:43:08;;;;;;;28.27;12.05;;;;;;;;;;4954552;28;20597;-76
2023/12/05 12:45:34;;;;;;;23.48;12.40;;;;;;;;;;4996096;28;20072;-76
2023/12/05 12:48:03;;;;;;;20.83;10.30;;;;;;;;;;4984688;28;20041;-75
2023/12/05 12:50:29;;;;;;;22.52;10.55;;;;;;;;;;4976799;28;20044;-75
2023/12/05 12:52:55;;;;;;;20.23;9.02;;;;;;;;;;4996597;28;20667;-75
2023/12/05 12:55:21;;;;;;;19.08;8.93;;;;;;;;;;4978657;28;20132;-76
2023/12/05 12:57:50;;;;;;;19.60;9.38;;;;;;;;;;4996675;28;20137;-76
2023/12/05 13:00:17;;;;;;;23.95;11.40;;;;;;;;;;4994793;28;20046;-76
2023/12/05 13:02:43;;;;;;;18.88;9.65;;;;;;;;;;4994117;28;20066;-76
2023/12/05 13:05:08;;;;;;;21.33;10.20;;;;;;;;;;4997247;28;20102;-76
2023/12/05 13:07:34;;;;;;;20.75;10.27;;;;;;;;;;4995680;28;20037;-76
2023/12/05 13:09:59;;;;;;;20.48;10.40;;;;;;;;;;4975861;28;20120;-76
2023/12/05 13:12:25;;;;;;;22.98;10.15;;;;;;;;;;4997202;28;20037;-76
2023/12/05 13:14:51;;;;;;;24.38;10.95;;;;;;;;;;4996690;28;20065;-75
2023/12/05 13:17:17;;;;;;;29.25;12.98;;;;;;;;;;4976865;28;20081;-76
2023/12/05 13:19:43;;;;;;;27.08;13.77;;;;;;;;;;4989197;28;20029;-76
2023/12/05 13:22:08;;;;;;;33.67;14.13;;;;;;;;;;4995027;28;20072;-76
2023/12/05 13:24:34;;;;;;;28.83;13.00;;;;;;;;;;4973330;28;20520;-76
2023/12/05 13:27:00;;;;;;;27.90;12.82;;;;;;;;;;4995822;28;20715;-75
2023/12/05 13:29:26;;;;;;;26.90;14.52;;;;;;;;;;5002531;28;20100;-76
2023/12/05 13:31:51;;;;;;;31.55;12.80;;;;;;;;;;4999638;28;20046;-76
2023/12/05 13:34:17;;;;;;;25.77;11.65;;;;;;;;;;4977303;28;20091;-76
2023/12/05 13:36:42;;;;;;;23.10;11.43;;;;;;;;;;4988019;28;20091;-76
2023/12/05 13:39:08;;;;;;;25.73;11.38;;;;;;;;;;4967412;28;20494;-76
2023/12/05 13:41:34;;;;;;;22.02;10.48;;;;;;;;;;4987815;28;20117;-76
2023/12/05 13:44:01;;;;;;;20.35;10.45;;;;;;;;;;4983815;28;20547;-75
2023/12/05 13:46:28;;;;;;;18.85;10.18;;;;;;;;;;4993233;28;20042;-76
2023/12/05 13:49:00;;;;;;;23.92;10.43;;;;;;;;;;4993595;28;20043;-76
2023/12/05 13:51:27;;;;;;;21.38;9.55;;;;;;;;;;4953605;28;20781;-76
2023/12/05 13:53:52;;;;;;;21.00;9.82;;;;;;;;;;4978429;28;20504;-76
2023/12/05 13:56:18;;;;;;;19.15;10.73;;;;;;;;;;4976011;28;20053;-76
2023/12/05 13:58:46;;;;;;;19.42;9.18;;;;;;;;;;4993816;28;20551;-76
2023/12/05 14:01:11;;;;;;;19.90;9.25;;;;;;;;;;4987743;28;20041;-76
2023/12/05 14:03:36;;;;;;;18.50;9.20;;;;;;;;;;4983773;28;20065;-76
2023/12/05 14:06:02;;;;;;;18.48;9.75;;;;;;;;;;4964095;28;20037;-76
2023/12/05 14:08:28;;;;;;;19.70;9.63;;;;;;;;;;4982902;28;20041;-76
2023/12/05 14:10:54;;;;;;;16.05;8.45;;;;;;;;;;4980061;28;20037;-76
2023/12/05 14:13:19;;;;;;;16.50;9.48;;;;;;;;;;4986553;28;20416;-76
2023/12/05 14:15:45;;;;;;;43.22;18.42;;;;;;;;;;4979460;28;20074;-76
2023/12/05 14:18:10;;;;;;;29.60;13.82;;;;;;;;;;4989774;28;20044;-76
2023/12/05 14:20:35;;;;;;;26.98;11.63;;;;;;;;;;4971252;28;20038;-76